PGT532N LTAI-EHAM
Flight info
| Callsign | PGT532N |
|---|---|
| Flight time | 3h 53m |
| Altitude | 34000 |
| Route | EKNUD UT337 OSVEL UL619 RAVGO/N0455F360 UL619 MAKOL L619 ARGES DCT BUDOP DCT PATAK DCT KATQA DCT VARIK DCT KATCE DCT NORKU |
| Aircraft | A21N/M-SDE2E3FGHIRWXY/LB1 |
Departure
| Time | 2026-05-07 06:08 |
|---|---|
| Airport | Antalya International Airport (LTAI) |
Arrival
| Time | 2026-05-07 10:01 |
|---|---|
| Airport | Amsterdam Airport Schiphol (EHAM) |
| Time | Latitude | Longitude | Altitude | Speed | Heading |
|---|---|---|---|---|---|
| 2026-05-07 05:28 | 36.91251 | 30.80060 | 203 ft | 0 kts | 97° |
| 2026-05-07 05:52 | 36.91252 | 30.80048 | 196 ft | 4 kts | 97° |
| 2026-05-07 05:52 | 36.91255 | 30.80014 | 200 ft | 4 kts | 97° |
| 2026-05-07 05:52 | 36.91259 | 30.79981 | 196 ft | 4 kts | 97° |
| 2026-05-07 05:52 | 36.91262 | 30.79947 | 206 ft | 4 kts | 97° |
| 2026-05-07 05:53 | 36.91265 | 30.79921 | 203 ft | 4 kts | 84° |
| 2026-05-07 05:53 | 36.91255 | 30.79896 | 206 ft | 4 kts | 33° |
| 2026-05-07 05:53 | 36.91231 | 30.79884 | 206 ft | 3 kts | 8° |
| 2026-05-07 05:53 | 36.91228 | 30.79883 | 196 ft | 0 kts | 7° |
| 2026-05-07 05:56 | 36.91229 | 30.79883 | 196 ft | 1 kts | 7° |
| 2026-05-07 05:56 | 36.91241 | 30.79886 | 196 ft | 3 kts | 8° |
| 2026-05-07 05:57 | 36.91269 | 30.79890 | 196 ft | 5 kts | 6° |
| 2026-05-07 05:57 | 36.91312 | 30.79896 | 196 ft | 7 kts | 6° |
| 2026-05-07 05:57 | 36.91370 | 30.79904 | 204 ft | 9 kts | 6° |
| 2026-05-07 05:57 | 36.91442 | 30.79914 | 203 ft | 11 kts | 6° |
| 2026-05-07 05:58 | 36.91510 | 30.79878 | 199 ft | 13 kts | 285° |
| 2026-05-07 05:58 | 36.91522 | 30.79758 | 196 ft | 14 kts | 276° |
| 2026-05-07 05:58 | 36.91472 | 30.79685 | 204 ft | 13 kts | 194° |
| 2026-05-07 05:58 | 36.91374 | 30.79680 | 202 ft | 15 kts | 189° |
| 2026-05-07 05:59 | 36.91265 | 30.79659 | 199 ft | 17 kts | 184° |
| 2026-05-07 05:59 | 36.91144 | 30.79646 | 196 ft | 18 kts | 187° |
| 2026-05-07 05:59 | 36.91012 | 30.79626 | 200 ft | 20 kts | 187° |
| 2026-05-07 05:59 | 36.90874 | 30.79606 | 201 ft | 21 kts | 186° |
| 2026-05-07 06:00 | 36.90725 | 30.79585 | 197 ft | 22 kts | 186° |
| 2026-05-07 06:00 | 36.90574 | 30.79563 | 202 ft | 18 kts | 187° |
| 2026-05-07 06:00 | 36.90486 | 30.79551 | 204 ft | 12 kts | 186° |
| 2026-05-07 06:00 | 36.90417 | 30.79586 | 197 ft | 13 kts | 103° |
| 2026-05-07 06:01 | 36.90404 | 30.79708 | 203 ft | 15 kts | 96° |
| 2026-05-07 06:01 | 36.90392 | 30.79844 | 197 ft | 16 kts | 96° |
| 2026-05-07 06:01 | 36.90379 | 30.79992 | 201 ft | 18 kts | 97° |
| 2026-05-07 06:01 | 36.90363 | 30.80151 | 197 ft | 19 kts | 97° |
| 2026-05-07 06:02 | 36.90347 | 30.80319 | 197 ft | 20 kts | 95° |
| 2026-05-07 06:02 | 36.90333 | 30.80500 | 206 ft | 21 kts | 96° |
| 2026-05-07 06:02 | 36.90319 | 30.80667 | 197 ft | 13 kts | 96° |
| 2026-05-07 06:02 | 36.90255 | 30.80750 | 197 ft | 15 kts | 156° |
| 2026-05-07 06:03 | 36.90150 | 30.80770 | 206 ft | 16 kts | 187° |
| 2026-05-07 06:03 | 36.90031 | 30.80754 | 209 ft | 18 kts | 186° |
| 2026-05-07 06:03 | 36.89904 | 30.80737 | 205 ft | 19 kts | 186° |
| 2026-05-07 06:03 | 36.89768 | 30.80719 | 209 ft | 20 kts | 186° |
| 2026-05-07 06:04 | 36.89625 | 30.80700 | 206 ft | 21 kts | 187° |
| 2026-05-07 06:04 | 36.89477 | 30.80678 | 206 ft | 22 kts | 186° |
| 2026-05-07 06:04 | 36.89325 | 30.80658 | 204 ft | 18 kts | 186° |
| 2026-05-07 06:04 | 36.89200 | 30.80641 | 206 ft | 19 kts | 186° |
| 2026-05-07 06:05 | 36.89067 | 30.80622 | 197 ft | 20 kts | 186° |
| 2026-05-07 06:05 | 36.88926 | 30.80603 | 202 ft | 21 kts | 186° |
| 2026-05-07 06:05 | 36.88776 | 30.80583 | 198 ft | 22 kts | 186° |
| 2026-05-07 06:05 | 36.88618 | 30.80561 | 209 ft | 23 kts | 186° |
| 2026-05-07 06:06 | 36.88453 | 30.80538 | 210 ft | 24 kts | 186° |
| 2026-05-07 06:06 | 36.88300 | 30.80516 | 203 ft | 17 kts | 186° |
| 2026-05-07 06:06 | 36.88192 | 30.80502 | 206 ft | 14 kts | 185° |
| 2026-05-07 06:06 | 36.88141 | 30.80553 | 205 ft | 10 kts | 104° |
| 2026-05-07 06:07 | 36.88134 | 30.80646 | 195 ft | 11 kts | 95° |
| 2026-05-07 06:07 | 36.88157 | 30.80733 | 201 ft | 10 kts | 19° |
| 2026-05-07 06:07 | 36.88194 | 30.80740 | 207 ft | 5 kts | 7° |
| 2026-05-07 06:07 | 36.88438 | 30.80775 | 207 ft | 70 kts | 5° |
| 2026-05-07 06:08 | 36.89130 | 30.80867 | 195 ft | 128 kts | 6° |
| 2026-05-07 06:08 | 36.90176 | 30.81012 | 262 ft | 164 kts | 7° |
| 2026-05-07 06:08 | 36.91293 | 30.81175 | 747 ft | 165 kts | 6° |
| 2026-05-07 06:08 | 36.92361 | 30.81682 | 1265 ft | 167 kts | 28° |
| 2026-05-07 06:09 | 36.93442 | 30.82313 | 1735 ft | 177 kts | 22° |
| 2026-05-07 06:09 | 36.94630 | 30.82898 | 2224 ft | 190 kts | 21° |
| 2026-05-07 06:09 | 36.95914 | 30.83508 | 2879 ft | 204 kts | 20° |
| 2026-05-07 06:09 | 36.97311 | 30.84170 | 3425 ft | 226 kts | 20° |
| 2026-05-07 06:10 | 36.98813 | 30.84880 | 4226 ft | 234 kts | 20° |
| 2026-05-07 06:10 | 37.00386 | 30.85637 | 4897 ft | 252 kts | 21° |
| 2026-05-07 06:10 | 37.02052 | 30.86449 | 5568 ft | 266 kts | 21° |
| 2026-05-07 06:10 | 37.03813 | 30.87311 | 6456 ft | 270 kts | 21° |
| 2026-05-07 06:11 | 37.05548 | 30.88160 | 7355 ft | 273 kts | 21° |
| 2026-05-07 06:11 | 37.07382 | 30.88822 | 8250 ft | 276 kts | 5° |
| 2026-05-07 06:11 | 37.09303 | 30.88671 | 9151 ft | 279 kts | 349° |
| 2026-05-07 06:11 | 37.11215 | 30.88175 | 10070 ft | 282 kts | 348° |
| 2026-05-07 06:12 | 37.13188 | 30.87637 | 10605 ft | 301 kts | 348° |
| 2026-05-07 06:12 | 37.15303 | 30.87075 | 11043 ft | 319 kts | 348° |
| 2026-05-07 06:12 | 37.17507 | 30.86505 | 11789 ft | 326 kts | 348° |
| 2026-05-07 06:12 | 37.19713 | 30.85937 | 12615 ft | 330 kts | 348° |
| 2026-05-07 06:13 | 37.21966 | 30.85367 | 13451 ft | 332 kts | 348° |
| 2026-05-07 06:13 | 37.24242 | 30.84792 | 14252 ft | 335 kts | 348° |
| 2026-05-07 06:13 | 37.26541 | 30.84212 | 15019 ft | 339 kts | 347° |
| 2026-05-07 06:13 | 37.28862 | 30.83626 | 15794 ft | 342 kts | 347° |
| 2026-05-07 06:14 | 37.31207 | 30.83033 | 16546 ft | 345 kts | 347° |
| 2026-05-07 06:14 | 37.33569 | 30.82436 | 17274 ft | 348 kts | 347° |
| 2026-05-07 06:14 | 37.35953 | 30.81830 | 17971 ft | 351 kts | 347° |
| 2026-05-07 06:14 | 37.38324 | 30.81225 | 18639 ft | 354 kts | 347° |
| 2026-05-07 06:15 | 37.40742 | 30.80609 | 19294 ft | 356 kts | 347° |
| 2026-05-07 06:15 | 37.43214 | 30.80203 | 19921 ft | 361 kts | 356° |
| 2026-05-07 06:15 | 37.45745 | 30.80229 | 20532 ft | 365 kts | 359° |
| 2026-05-07 06:15 | 37.48296 | 30.80320 | 21127 ft | 368 kts | 359° |
| 2026-05-07 06:16 | 37.50862 | 30.80422 | 21726 ft | 371 kts | 359° |
| 2026-05-07 06:16 | 37.53447 | 30.80545 | 22303 ft | 373 kts | 359° |
| 2026-05-07 06:16 | 37.56047 | 30.80668 | 22850 ft | 376 kts | 359° |
| 2026-05-07 06:16 | 37.58672 | 30.80789 | 23380 ft | 379 kts | 359° |
| 2026-05-07 06:17 | 37.61287 | 30.80908 | 23888 ft | 382 kts | 359° |
| 2026-05-07 06:17 | 37.63948 | 30.81027 | 24389 ft | 384 kts | 359° |
| 2026-05-07 06:17 | 37.66633 | 30.81148 | 24926 ft | 387 kts | 359° |
| 2026-05-07 06:17 | 37.69323 | 30.81269 | 25451 ft | 388 kts | 359° |
| 2026-05-07 06:18 | 37.72026 | 30.81400 | 25928 ft | 390 kts | 359° |
| 2026-05-07 06:18 | 37.74745 | 30.81550 | 26395 ft | 391 kts | 359° |
| 2026-05-07 06:18 | 37.77477 | 30.81693 | 26838 ft | 393 kts | 358° |
| 2026-05-07 06:18 | 37.80211 | 30.81705 | 27255 ft | 395 kts | 356° |
| 2026-05-07 06:19 | 37.82929 | 30.81661 | 27668 ft | 397 kts | 356° |
| 2026-05-07 06:19 | 37.85700 | 30.81608 | 28062 ft | 399 kts | 356° |
| 2026-05-07 06:19 | 37.88477 | 30.81553 | 28456 ft | 401 kts | 355° |
| 2026-05-07 06:19 | 37.91272 | 30.81489 | 28833 ft | 402 kts | 355° |
| 2026-05-07 06:20 | 37.94072 | 30.81422 | 29192 ft | 404 kts | 355° |
| 2026-05-07 06:20 | 37.96891 | 30.81362 | 29544 ft | 406 kts | 355° |
| 2026-05-07 06:20 | 37.99715 | 30.81306 | 29907 ft | 407 kts | 355° |
| 2026-05-07 06:20 | 38.02553 | 30.81253 | 30275 ft | 408 kts | 356° |
| 2026-05-07 06:21 | 38.05388 | 30.81199 | 30651 ft | 408 kts | 356° |
| 2026-05-07 06:21 | 38.08190 | 30.81143 | 31069 ft | 407 kts | 356° |
| 2026-05-07 06:21 | 38.11016 | 30.81165 | 31489 ft | 407 kts | 0° |
| 2026-05-07 06:21 | 38.13829 | 30.81759 | 31880 ft | 413 kts | 11° |
| 2026-05-07 06:22 | 38.16529 | 30.83067 | 32249 ft | 417 kts | 19° |
| 2026-05-07 06:22 | 38.21778 | 30.86219 | 32962 ft | 417 kts | 20° |
| 2026-05-07 06:22 | 38.24403 | 30.87794 | 33298 ft | 416 kts | 20° |
| 2026-05-07 06:23 | 38.26983 | 30.89328 | 33616 ft | 415 kts | 20° |
| 2026-05-07 06:23 | 38.29601 | 30.90877 | 33897 ft | 415 kts | 19° |
| 2026-05-07 06:23 | 38.32226 | 30.92418 | 34172 ft | 415 kts | 19° |
| 2026-05-07 06:23 | 38.34858 | 30.93964 | 34258 ft | 416 kts | 19° |
| 2026-05-07 06:24 | 38.40119 | 30.97067 | 34244 ft | 417 kts | 19° |
| 2026-05-07 06:24 | 38.45482 | 30.99722 | 34232 ft | 409 kts | 8° |
| 2026-05-07 06:25 | 38.51057 | 31.00049 | 34228 ft | 399 kts | 349° |
| 2026-05-07 06:25 | 38.56295 | 30.98088 | 34232 ft | 395 kts | 338° |
| 2026-05-07 06:26 | 38.61435 | 30.95567 | 34231 ft | 396 kts | 338° |
| 2026-05-07 06:26 | 38.66597 | 30.93068 | 34227 ft | 397 kts | 338° |
| 2026-05-07 06:27 | 38.71759 | 30.90581 | 34235 ft | 396 kts | 338° |
| 2026-05-07 06:27 | 38.76885 | 30.88111 | 34232 ft | 396 kts | 338° |
| 2026-05-07 06:28 | 38.82126 | 30.85891 | 34234 ft | 397 kts | 340° |
| 2026-05-07 06:28 | 38.87321 | 30.83533 | 34234 ft | 395 kts | 338° |
| 2026-05-07 06:29 | 38.92466 | 30.81041 | 34233 ft | 395 kts | 338° |
| 2026-05-07 06:29 | 38.97581 | 30.78558 | 34239 ft | 395 kts | 338° |
| 2026-05-07 06:30 | 39.02670 | 30.75883 | 34230 ft | 395 kts | 335° |
| 2026-05-07 06:30 | 39.07757 | 30.73195 | 34237 ft | 395 kts | 337° |
| 2026-05-07 06:31 | 39.12890 | 30.70656 | 34227 ft | 395 kts | 338° |
| 2026-05-07 06:31 | 39.17988 | 30.68166 | 34232 ft | 394 kts | 338° |
| 2026-05-07 06:32 | 39.23126 | 30.65655 | 34225 ft | 395 kts | 338° |
| 2026-05-07 06:32 | 39.28253 | 30.63146 | 34227 ft | 394 kts | 338° |
| 2026-05-07 06:33 | 39.33387 | 30.60629 | 34245 ft | 395 kts | 338° |
| 2026-05-07 06:33 | 39.35962 | 30.59366 | 34447 ft | 396 kts | 338° |
| 2026-05-07 06:33 | 39.38534 | 30.58103 | 34719 ft | 396 kts | 338° |
| 2026-05-07 06:34 | 39.41080 | 30.56852 | 34946 ft | 397 kts | 338° |
| 2026-05-07 06:34 | 39.43661 | 30.55582 | 35123 ft | 398 kts | 338° |
| 2026-05-07 06:34 | 39.46255 | 30.54305 | 35296 ft | 399 kts | 338° |
| 2026-05-07 06:34 | 39.48856 | 30.53024 | 35467 ft | 401 kts | 338° |
| 2026-05-07 06:35 | 39.51461 | 30.51739 | 35662 ft | 401 kts | 338° |
| 2026-05-07 06:35 | 39.54072 | 30.50445 | 35851 ft | 402 kts | 337° |
| 2026-05-07 06:35 | 39.56650 | 30.49013 | 36014 ft | 403 kts | 335° |
| 2026-05-07 06:35 | 39.59254 | 30.47664 | 36173 ft | 404 kts | 338° |
| 2026-05-07 06:36 | 39.64464 | 30.44988 | 36261 ft | 406 kts | 336° |
| 2026-05-07 06:36 | 39.69615 | 30.41994 | 36236 ft | 406 kts | 332° |
| 2026-05-07 06:37 | 39.74641 | 30.38670 | 36230 ft | 406 kts | 333° |
| 2026-05-07 06:37 | 39.79754 | 30.35565 | 36230 ft | 405 kts | 335° |
| 2026-05-07 06:38 | 39.84859 | 30.32566 | 36230 ft | 405 kts | 335° |
| 2026-05-07 06:38 | 39.90012 | 30.29575 | 36230 ft | 405 kts | 337° |
| 2026-05-07 06:39 | 39.95300 | 30.27014 | 36224 ft | 406 kts | 338° |
| 2026-05-07 06:39 | 40.00500 | 30.24165 | 36222 ft | 405 kts | 335° |
| 2026-05-07 06:40 | 40.05442 | 30.20743 | 36220 ft | 404 kts | 331° |
| 2026-05-07 06:40 | 40.10470 | 30.17471 | 36209 ft | 404 kts | 334° |
| 2026-05-07 06:41 | 40.15578 | 30.14404 | 36210 ft | 404 kts | 335° |
| 2026-05-07 06:41 | 40.20701 | 30.11371 | 36203 ft | 404 kts | 335° |
| 2026-05-07 06:42 | 40.25782 | 30.08355 | 36202 ft | 404 kts | 335° |
| 2026-05-07 06:42 | 40.30905 | 30.05316 | 36184 ft | 404 kts | 335° |
| 2026-05-07 06:43 | 40.36027 | 30.02265 | 36181 ft | 405 kts | 335° |
| 2026-05-07 06:43 | 40.41151 | 29.99212 | 36175 ft | 405 kts | 335° |
| 2026-05-07 06:44 | 40.46281 | 29.96148 | 36170 ft | 404 kts | 335° |
| 2026-05-07 06:44 | 40.51364 | 29.93113 | 36170 ft | 404 kts | 335° |
| 2026-05-07 06:45 | 40.56487 | 29.90049 | 36171 ft | 404 kts | 335° |
| 2026-05-07 06:45 | 40.61613 | 29.86968 | 36171 ft | 405 kts | 335° |
| 2026-05-07 06:46 | 40.66740 | 29.83885 | 36168 ft | 405 kts | 335° |
| 2026-05-07 06:46 | 40.71833 | 29.80823 | 36170 ft | 405 kts | 335° |
| 2026-05-07 06:47 | 40.76952 | 29.77719 | 36170 ft | 405 kts | 334° |
| 2026-05-07 06:47 | 40.82073 | 29.74619 | 36165 ft | 405 kts | 335° |
| 2026-05-07 06:48 | 40.87193 | 29.71521 | 36162 ft | 405 kts | 335° |
| 2026-05-07 06:48 | 40.92281 | 29.68434 | 36160 ft | 405 kts | 335° |
| 2026-05-07 06:49 | 40.97409 | 29.65299 | 36156 ft | 406 kts | 334° |
| 2026-05-07 06:49 | 41.02525 | 29.62164 | 36149 ft | 406 kts | 335° |
| 2026-05-07 06:50 | 41.07659 | 29.59030 | 36151 ft | 406 kts | 335° |
| 2026-05-07 06:50 | 41.12759 | 29.55915 | 36152 ft | 406 kts | 335° |
| 2026-05-07 06:51 | 41.17893 | 29.52773 | 36152 ft | 406 kts | 335° |
| 2026-05-07 06:51 | 41.23234 | 29.50304 | 36152 ft | 407 kts | 343° |
| 2026-05-07 06:52 | 41.28688 | 29.48268 | 36149 ft | 408 kts | 343° |
| 2026-05-07 06:52 | 41.34117 | 29.46215 | 36150 ft | 408 kts | 343° |
| 2026-05-07 06:53 | 41.39583 | 29.44141 | 36150 ft | 408 kts | 343° |
| 2026-05-07 06:53 | 41.45045 | 29.42058 | 36151 ft | 408 kts | 343° |
| 2026-05-07 06:54 | 41.50505 | 29.39976 | 36152 ft | 408 kts | 343° |
| 2026-05-07 06:54 | 41.55925 | 29.37904 | 36152 ft | 408 kts | 343° |
| 2026-05-07 06:55 | 41.61379 | 29.35817 | 36149 ft | 408 kts | 343° |
| 2026-05-07 06:55 | 41.66837 | 29.33725 | 36153 ft | 408 kts | 343° |
| 2026-05-07 06:56 | 41.72300 | 29.31621 | 36151 ft | 409 kts | 342° |
| 2026-05-07 06:56 | 41.77731 | 29.29533 | 36151 ft | 409 kts | 342° |
| 2026-05-07 06:57 | 41.83200 | 29.27421 | 36143 ft | 409 kts | 342° |
| 2026-05-07 06:57 | 41.88660 | 29.25299 | 36144 ft | 408 kts | 342° |
| 2026-05-07 06:58 | 41.94116 | 29.23193 | 36135 ft | 408 kts | 342° |
| 2026-05-07 06:58 | 41.99531 | 29.21099 | 36134 ft | 408 kts | 342° |
| 2026-05-07 06:59 | 42.04984 | 29.18986 | 36144 ft | 408 kts | 342° |
| 2026-05-07 06:59 | 42.10447 | 29.16858 | 36137 ft | 409 kts | 342° |
| 2026-05-07 07:00 | 42.15857 | 29.14496 | 36141 ft | 408 kts | 335° |
| 2026-05-07 07:00 | 42.18315 | 29.12604 | 36139 ft | 408 kts | 324° |
| 2026-05-07 07:00 | 42.20474 | 29.10204 | 36144 ft | 408 kts | 319° |
| 2026-05-07 07:01 | 42.24651 | 29.05029 | 36134 ft | 408 kts | 318° |
| 2026-05-07 07:01 | 42.28838 | 28.99863 | 36133 ft | 407 kts | 319° |
| 2026-05-07 07:02 | 42.33028 | 28.94714 | 36129 ft | 407 kts | 319° |
| 2026-05-07 07:02 | 42.37214 | 28.89572 | 36136 ft | 406 kts | 318° |
| 2026-05-07 07:03 | 42.41363 | 28.84451 | 36129 ft | 406 kts | 318° |
| 2026-05-07 07:03 | 42.45536 | 28.79290 | 36133 ft | 406 kts | 318° |
| 2026-05-07 07:04 | 42.49711 | 28.74134 | 36135 ft | 406 kts | 318° |
| 2026-05-07 07:04 | 42.53878 | 28.68964 | 36141 ft | 405 kts | 318° |
| 2026-05-07 07:05 | 42.58004 | 28.63838 | 36144 ft | 405 kts | 318° |
| 2026-05-07 07:05 | 42.62149 | 28.58667 | 36144 ft | 405 kts | 318° |
| 2026-05-07 07:06 | 42.66301 | 28.53502 | 36145 ft | 405 kts | 318° |
| 2026-05-07 07:06 | 42.70453 | 28.48327 | 36144 ft | 405 kts | 318° |
| 2026-05-07 07:07 | 42.74550 | 28.43144 | 36139 ft | 405 kts | 318° |
| 2026-05-07 07:07 | 42.78682 | 28.37940 | 36136 ft | 405 kts | 318° |
| 2026-05-07 07:08 | 42.82820 | 28.32735 | 36140 ft | 405 kts | 318° |
| 2026-05-07 07:08 | 42.86953 | 28.27527 | 36142 ft | 405 kts | 318° |
| 2026-05-07 07:09 | 42.91064 | 28.22345 | 36134 ft | 405 kts | 318° |
| 2026-05-07 07:09 | 42.95190 | 28.17129 | 36132 ft | 404 kts | 318° |
| 2026-05-07 07:10 | 42.99317 | 28.11905 | 36134 ft | 404 kts | 318° |
| 2026-05-07 07:10 | 43.03440 | 28.06682 | 36146 ft | 404 kts | 318° |
| 2026-05-07 07:11 | 43.07562 | 28.01460 | 36142 ft | 404 kts | 318° |
| 2026-05-07 07:11 | 43.11671 | 27.96290 | 36143 ft | 404 kts | 318° |
| 2026-05-07 07:12 | 43.15781 | 27.91058 | 36135 ft | 403 kts | 317° |
| 2026-05-07 07:12 | 43.19887 | 27.85823 | 36135 ft | 403 kts | 317° |
| 2026-05-07 07:13 | 43.24036 | 27.80646 | 36143 ft | 403 kts | 320° |
| 2026-05-07 07:13 | 43.28300 | 27.75726 | 36144 ft | 403 kts | 320° |
| 2026-05-07 07:14 | 43.32596 | 27.70781 | 36133 ft | 403 kts | 320° |
| 2026-05-07 07:14 | 43.36888 | 27.65824 | 36135 ft | 403 kts | 320° |
| 2026-05-07 07:15 | 43.41183 | 27.60862 | 36130 ft | 403 kts | 320° |
| 2026-05-07 07:15 | 43.45432 | 27.55909 | 36129 ft | 403 kts | 320° |
| 2026-05-07 07:16 | 43.49725 | 27.50902 | 36143 ft | 404 kts | 320° |
| 2026-05-07 07:16 | 43.54011 | 27.45896 | 36132 ft | 404 kts | 320° |
| 2026-05-07 07:17 | 43.58320 | 27.40919 | 36132 ft | 404 kts | 320° |
| 2026-05-07 07:17 | 43.62611 | 27.35917 | 36127 ft | 403 kts | 320° |
| 2026-05-07 07:18 | 43.66859 | 27.30941 | 36120 ft | 403 kts | 320° |
| 2026-05-07 07:18 | 43.71152 | 27.25945 | 36129 ft | 404 kts | 320° |
| 2026-05-07 07:19 | 43.75460 | 27.20970 | 36130 ft | 404 kts | 320° |
| 2026-05-07 07:19 | 43.79770 | 27.15971 | 36113 ft | 404 kts | 320° |
| 2026-05-07 07:20 | 43.84047 | 27.10989 | 36110 ft | 405 kts | 320° |
| 2026-05-07 07:20 | 43.88350 | 27.05947 | 36110 ft | 405 kts | 320° |
| 2026-05-07 07:21 | 43.92655 | 27.00912 | 36109 ft | 405 kts | 320° |
| 2026-05-07 07:21 | 43.96960 | 26.95867 | 36102 ft | 406 kts | 320° |
| 2026-05-07 07:22 | 44.01250 | 26.90846 | 36100 ft | 406 kts | 320° |
| 2026-05-07 07:22 | 44.05585 | 26.85765 | 36100 ft | 409 kts | 319° |
| 2026-05-07 07:23 | 44.09570 | 26.80147 | 36101 ft | 410 kts | 308° |
| 2026-05-07 07:23 | 44.12969 | 26.73771 | 36096 ft | 410 kts | 307° |
| 2026-05-07 07:24 | 44.16346 | 26.67385 | 36092 ft | 410 kts | 307° |
| 2026-05-07 07:24 | 44.19712 | 26.61038 | 36091 ft | 410 kts | 307° |
| 2026-05-07 07:25 | 44.24795 | 26.51449 | 36091 ft | 410 kts | 307° |
| 2026-05-07 07:26 | 44.28187 | 26.45056 | 36090 ft | 410 kts | 307° |
| 2026-05-07 07:26 | 44.31558 | 26.38707 | 36092 ft | 410 kts | 307° |
| 2026-05-07 07:27 | 44.34953 | 26.32310 | 36081 ft | 410 kts | 307° |
| 2026-05-07 07:27 | 44.38335 | 26.25902 | 36080 ft | 410 kts | 307° |
| 2026-05-07 07:28 | 44.41707 | 26.19478 | 36080 ft | 410 kts | 307° |
| 2026-05-07 07:28 | 44.45038 | 26.13070 | 36080 ft | 410 kts | 306° |
| 2026-05-07 07:29 | 44.48377 | 26.06614 | 36081 ft | 409 kts | 307° |
| 2026-05-07 07:29 | 44.51734 | 26.00162 | 36080 ft | 410 kts | 307° |
| 2026-05-07 07:30 | 44.55060 | 25.93676 | 36080 ft | 411 kts | 305° |
| 2026-05-07 07:30 | 44.58313 | 25.87148 | 36080 ft | 411 kts | 306° |
| 2026-05-07 07:31 | 44.61651 | 25.80646 | 36080 ft | 411 kts | 306° |
| 2026-05-07 07:31 | 44.65011 | 25.74142 | 36079 ft | 411 kts | 306° |
| 2026-05-07 07:32 | 44.68368 | 25.67634 | 36081 ft | 412 kts | 306° |
| 2026-05-07 07:32 | 44.71699 | 25.61160 | 36080 ft | 411 kts | 306° |
| 2026-05-07 07:33 | 44.75047 | 25.54641 | 36079 ft | 411 kts | 306° |
| 2026-05-07 07:33 | 44.78392 | 25.48111 | 36080 ft | 412 kts | 306° |
| 2026-05-07 07:34 | 44.81741 | 25.41565 | 36080 ft | 412 kts | 306° |
| 2026-05-07 07:34 | 44.85169 | 25.35156 | 36080 ft | 412 kts | 307° |
| 2026-05-07 07:35 | 44.88272 | 25.28381 | 36078 ft | 412 kts | 300° |
| 2026-05-07 07:35 | 44.91272 | 25.21487 | 36074 ft | 412 kts | 304° |
| 2026-05-07 07:36 | 44.94542 | 25.14853 | 36072 ft | 412 kts | 305° |
| 2026-05-07 07:36 | 44.97871 | 25.08259 | 36067 ft | 412 kts | 305° |
| 2026-05-07 07:37 | 45.01172 | 25.01718 | 36069 ft | 411 kts | 306° |
| 2026-05-07 07:37 | 45.04815 | 24.95484 | 36069 ft | 411 kts | 308° |
| 2026-05-07 07:38 | 45.08279 | 24.89050 | 36067 ft | 411 kts | 306° |
| 2026-05-07 07:38 | 45.11604 | 24.82463 | 36071 ft | 411 kts | 305° |
| 2026-05-07 07:39 | 45.14883 | 24.75897 | 36067 ft | 411 kts | 305° |
| 2026-05-07 07:39 | 45.18177 | 24.69283 | 36054 ft | 411 kts | 304° |
| 2026-05-07 07:40 | 45.21471 | 24.62658 | 36058 ft | 410 kts | 304° |
| 2026-05-07 07:40 | 45.24752 | 24.56042 | 36064 ft | 410 kts | 304° |
| 2026-05-07 07:41 | 45.28056 | 24.49448 | 36051 ft | 410 kts | 306° |
| 2026-05-07 07:41 | 45.31406 | 24.42966 | 36054 ft | 410 kts | 305° |
| 2026-05-07 07:42 | 45.34692 | 24.36363 | 36036 ft | 409 kts | 304° |
| 2026-05-07 07:42 | 45.37953 | 24.29737 | 36033 ft | 409 kts | 304° |
| 2026-05-07 07:43 | 45.41202 | 24.23110 | 36027 ft | 409 kts | 304° |
| 2026-05-07 07:43 | 45.44428 | 24.16515 | 36030 ft | 408 kts | 304° |
| 2026-05-07 07:44 | 45.47549 | 24.09778 | 36029 ft | 407 kts | 298° |
| 2026-05-07 07:44 | 45.50351 | 24.02757 | 36029 ft | 408 kts | 301° |
| 2026-05-07 07:45 | 45.53480 | 23.96010 | 36029 ft | 408 kts | 303° |
| 2026-05-07 07:45 | 45.56998 | 23.89728 | 36029 ft | 409 kts | 309° |
| 2026-05-07 07:46 | 45.60485 | 23.83324 | 36029 ft | 408 kts | 304° |
| 2026-05-07 07:46 | 45.63731 | 23.76685 | 36027 ft | 407 kts | 303° |
| 2026-05-07 07:47 | 45.66929 | 23.70000 | 36028 ft | 407 kts | 301° |
| 2026-05-07 07:47 | 45.69677 | 23.62924 | 36032 ft | 407 kts | 300° |
| 2026-05-07 07:48 | 45.72940 | 23.56364 | 36029 ft | 409 kts | 309° |
| 2026-05-07 07:48 | 45.76449 | 23.49979 | 36030 ft | 408 kts | 305° |
| 2026-05-07 07:49 | 45.79704 | 23.43331 | 36028 ft | 408 kts | 303° |
| 2026-05-07 07:49 | 45.82901 | 23.36615 | 36030 ft | 408 kts | 303° |
| 2026-05-07 07:50 | 45.85551 | 23.31028 | 36031 ft | 408 kts | 303° |
| 2026-05-07 07:50 | 45.89255 | 23.23198 | 36030 ft | 409 kts | 303° |
| 2026-05-07 07:51 | 45.92442 | 23.16445 | 36031 ft | 409 kts | 302° |
| 2026-05-07 07:51 | 45.95625 | 23.09686 | 36050 ft | 409 kts | 302° |
| 2026-05-07 07:52 | 45.98787 | 23.02952 | 36053 ft | 409 kts | 302° |
| 2026-05-07 07:52 | 46.01968 | 22.96165 | 36038 ft | 410 kts | 302° |
| 2026-05-07 07:53 | 46.05160 | 22.89335 | 36036 ft | 412 kts | 302° |
| 2026-05-07 07:53 | 46.08354 | 22.82487 | 36048 ft | 412 kts | 302° |
| 2026-05-07 07:54 | 46.11551 | 22.75613 | 36037 ft | 413 kts | 302° |
| 2026-05-07 07:54 | 46.14716 | 22.68791 | 36036 ft | 412 kts | 301° |
| 2026-05-07 07:55 | 46.17895 | 22.61922 | 36037 ft | 412 kts | 301° |
| 2026-05-07 07:55 | 46.21070 | 22.55046 | 36037 ft | 412 kts | 301° |
| 2026-05-07 07:56 | 46.24241 | 22.48160 | 36049 ft | 412 kts | 301° |
| 2026-05-07 07:56 | 46.27389 | 22.41309 | 36036 ft | 412 kts | 301° |
| 2026-05-07 07:57 | 46.30555 | 22.34400 | 36036 ft | 412 kts | 301° |
| 2026-05-07 07:57 | 46.33715 | 22.27486 | 36041 ft | 412 kts | 301° |
| 2026-05-07 07:58 | 46.36874 | 22.20556 | 36034 ft | 412 kts | 301° |
| 2026-05-07 07:58 | 46.40004 | 22.13662 | 36046 ft | 412 kts | 301° |
| 2026-05-07 07:59 | 46.43129 | 22.06693 | 36040 ft | 412 kts | 299° |
| 2026-05-07 07:59 | 46.46166 | 21.99643 | 36040 ft | 413 kts | 302° |
| 2026-05-07 08:00 | 46.48871 | 21.93941 | 36044 ft | 413 kts | 301° |
| 2026-05-07 08:00 | 46.52584 | 21.85825 | 36034 ft | 412 kts | 300° |
| 2026-05-07 08:01 | 46.55698 | 21.78904 | 36030 ft | 413 kts | 300° |
| 2026-05-07 08:01 | 46.58836 | 21.71909 | 36030 ft | 413 kts | 300° |
| 2026-05-07 08:02 | 46.61966 | 21.64907 | 36030 ft | 413 kts | 300° |
| 2026-05-07 08:02 | 46.64565 | 21.59080 | 36031 ft | 414 kts | 300° |
| 2026-05-07 08:03 | 46.68215 | 21.50904 | 36029 ft | 415 kts | 301° |
| 2026-05-07 08:03 | 46.71929 | 21.44410 | 36029 ft | 418 kts | 308° |
| 2026-05-07 08:04 | 46.75810 | 21.38069 | 36031 ft | 421 kts | 308° |
| 2026-05-07 08:04 | 46.79048 | 21.32753 | 36030 ft | 422 kts | 308° |
| 2026-05-07 08:05 | 46.83576 | 21.25279 | 36029 ft | 423 kts | 308° |
| 2026-05-07 08:05 | 46.86813 | 21.19923 | 36030 ft | 423 kts | 308° |
| 2026-05-07 08:06 | 46.90711 | 21.13471 | 36015 ft | 423 kts | 308° |
| 2026-05-07 08:06 | 46.94606 | 21.07001 | 36011 ft | 423 kts | 307° |
| 2026-05-07 08:07 | 46.98495 | 21.00522 | 36006 ft | 424 kts | 307° |
| 2026-05-07 08:07 | 47.02381 | 20.94035 | 36005 ft | 424 kts | 307° |
| 2026-05-07 08:08 | 47.06244 | 20.87569 | 36000 ft | 425 kts | 307° |
| 2026-05-07 08:08 | 47.10135 | 20.81043 | 35997 ft | 425 kts | 307° |
| 2026-05-07 08:09 | 47.14024 | 20.74507 | 35994 ft | 425 kts | 307° |
| 2026-05-07 08:09 | 47.17916 | 20.67956 | 35998 ft | 426 kts | 307° |
| 2026-05-07 08:10 | 47.21802 | 20.61381 | 36005 ft | 426 kts | 307° |
| 2026-05-07 08:10 | 47.25659 | 20.54847 | 36000 ft | 426 kts | 307° |
| 2026-05-07 08:11 | 47.29550 | 20.48246 | 35996 ft | 427 kts | 307° |
| 2026-05-07 08:11 | 47.33436 | 20.41632 | 36004 ft | 427 kts | 307° |
| 2026-05-07 08:12 | 47.37320 | 20.35010 | 35999 ft | 427 kts | 307° |
| 2026-05-07 08:12 | 47.41171 | 20.28417 | 35993 ft | 427 kts | 307° |
| 2026-05-07 08:13 | 47.45048 | 20.21764 | 35998 ft | 427 kts | 307° |
| 2026-05-07 08:13 | 47.48921 | 20.15094 | 35991 ft | 428 kts | 307° |
| 2026-05-07 08:14 | 47.52802 | 20.08406 | 35991 ft | 428 kts | 307° |
| 2026-05-07 08:14 | 47.56654 | 20.01767 | 35992 ft | 428 kts | 306° |
| 2026-05-07 08:15 | 47.60521 | 19.95078 | 35994 ft | 428 kts | 306° |
| 2026-05-07 08:15 | 47.64386 | 19.88374 | 35993 ft | 428 kts | 306° |
| 2026-05-07 08:16 | 47.68246 | 19.81657 | 35993 ft | 428 kts | 306° |
| 2026-05-07 08:16 | 47.72103 | 19.74928 | 35993 ft | 428 kts | 306° |
| 2026-05-07 08:17 | 47.75927 | 19.68236 | 35993 ft | 428 kts | 306° |
| 2026-05-07 08:17 | 47.79774 | 19.61495 | 35985 ft | 427 kts | 306° |
| 2026-05-07 08:18 | 47.83611 | 19.54754 | 35997 ft | 426 kts | 306° |
| 2026-05-07 08:18 | 47.87437 | 19.48009 | 35988 ft | 426 kts | 306° |
| 2026-05-07 08:19 | 47.91237 | 19.41291 | 35981 ft | 427 kts | 306° |
| 2026-05-07 08:19 | 47.95058 | 19.34522 | 35980 ft | 427 kts | 306° |
| 2026-05-07 08:20 | 47.98875 | 19.27748 | 35980 ft | 427 kts | 305° |
| 2026-05-07 08:20 | 48.02697 | 19.20947 | 35979 ft | 428 kts | 305° |
| 2026-05-07 08:21 | 48.06520 | 19.14122 | 35980 ft | 428 kts | 305° |
| 2026-05-07 08:21 | 48.10177 | 19.07201 | 35985 ft | 427 kts | 303° |
| 2026-05-07 08:22 | 48.13815 | 19.00171 | 35980 ft | 427 kts | 303° |
| 2026-05-07 08:22 | 48.17457 | 18.93129 | 35972 ft | 428 kts | 303° |
| 2026-05-07 08:23 | 48.21088 | 18.86085 | 35971 ft | 428 kts | 302° |
| 2026-05-07 08:23 | 48.24698 | 18.79066 | 35970 ft | 428 kts | 302° |
| 2026-05-07 08:24 | 48.28332 | 18.71987 | 35971 ft | 428 kts | 302° |
| 2026-05-07 08:24 | 48.31960 | 18.64895 | 35972 ft | 428 kts | 302° |
| 2026-05-07 08:25 | 48.35585 | 18.57786 | 35970 ft | 428 kts | 302° |
| 2026-05-07 08:25 | 48.39207 | 18.50662 | 35970 ft | 429 kts | 302° |
| 2026-05-07 08:26 | 48.44609 | 18.40006 | 35970 ft | 429 kts | 302° |
| 2026-05-07 08:26 | 48.48222 | 18.32864 | 35971 ft | 429 kts | 302° |
| 2026-05-07 08:27 | 48.51830 | 18.25718 | 35961 ft | 429 kts | 302° |
| 2026-05-07 08:27 | 48.55438 | 18.18549 | 35959 ft | 428 kts | 302° |
| 2026-05-07 08:28 | 48.59013 | 18.11425 | 35961 ft | 429 kts | 302° |
| 2026-05-07 08:28 | 48.62607 | 18.04238 | 35960 ft | 428 kts | 301° |
| 2026-05-07 08:29 | 48.66192 | 17.97038 | 35960 ft | 429 kts | 301° |
| 2026-05-07 08:29 | 48.69784 | 17.89824 | 35959 ft | 431 kts | 301° |
| 2026-05-07 08:30 | 48.73369 | 17.82595 | 35960 ft | 433 kts | 301° |
| 2026-05-07 08:30 | 48.76982 | 17.75293 | 35960 ft | 433 kts | 301° |
| 2026-05-07 08:31 | 48.80582 | 17.67988 | 35960 ft | 433 kts | 301° |
| 2026-05-07 08:31 | 48.84188 | 17.60638 | 35952 ft | 434 kts | 301° |
| 2026-05-07 08:32 | 48.87785 | 17.53316 | 35941 ft | 432 kts | 301° |
| 2026-05-07 08:32 | 48.91355 | 17.46035 | 35940 ft | 432 kts | 300° |
| 2026-05-07 08:33 | 48.94945 | 17.38689 | 35941 ft | 433 kts | 300° |
| 2026-05-07 08:33 | 48.98528 | 17.31338 | 35941 ft | 433 kts | 300° |
| 2026-05-07 08:34 | 49.01995 | 17.23869 | 35938 ft | 428 kts | 293° |
| 2026-05-07 08:34 | 49.04469 | 17.15777 | 35937 ft | 423 kts | 287° |
| 2026-05-07 08:35 | 49.06809 | 17.07540 | 35930 ft | 423 kts | 287° |
| 2026-05-07 08:35 | 49.09163 | 16.99304 | 35934 ft | 424 kts | 287° |
| 2026-05-07 08:36 | 49.11526 | 16.91058 | 35929 ft | 424 kts | 287° |
| 2026-05-07 08:36 | 49.13870 | 16.82859 | 35932 ft | 425 kts | 287° |
| 2026-05-07 08:37 | 49.16222 | 16.74598 | 35930 ft | 424 kts | 287° |
| 2026-05-07 08:37 | 49.18558 | 16.66325 | 35929 ft | 424 kts | 287° |
| 2026-05-07 08:38 | 49.20896 | 16.58043 | 35929 ft | 424 kts | 287° |
| 2026-05-07 08:38 | 49.23212 | 16.49799 | 35931 ft | 425 kts | 287° |
| 2026-05-07 08:39 | 49.25538 | 16.41490 | 35933 ft | 425 kts | 287° |
| 2026-05-07 08:39 | 49.27860 | 16.33170 | 35928 ft | 425 kts | 286° |
| 2026-05-07 08:40 | 49.30181 | 16.24832 | 35932 ft | 425 kts | 286° |
| 2026-05-07 08:40 | 49.32495 | 16.16483 | 35931 ft | 426 kts | 286° |
| 2026-05-07 08:41 | 49.34794 | 16.08179 | 35935 ft | 426 kts | 286° |
| 2026-05-07 08:41 | 49.37100 | 15.99817 | 35939 ft | 425 kts | 286° |
| 2026-05-07 08:42 | 49.39399 | 15.91428 | 35940 ft | 427 kts | 286° |
| 2026-05-07 08:42 | 49.41704 | 15.83008 | 35941 ft | 428 kts | 286° |
| 2026-05-07 08:43 | 49.43994 | 15.74645 | 35940 ft | 428 kts | 286° |
| 2026-05-07 08:43 | 49.46287 | 15.66218 | 35934 ft | 428 kts | 286° |
| 2026-05-07 08:44 | 49.48553 | 15.57768 | 35932 ft | 427 kts | 285° |
| 2026-05-07 08:44 | 49.50840 | 15.49317 | 35932 ft | 428 kts | 286° |
| 2026-05-07 08:45 | 49.53107 | 15.40905 | 35934 ft | 430 kts | 285° |
| 2026-05-07 08:45 | 49.55390 | 15.32375 | 35931 ft | 431 kts | 285° |
| 2026-05-07 08:46 | 49.57662 | 15.23844 | 35930 ft | 431 kts | 285° |
| 2026-05-07 08:46 | 49.59933 | 15.15296 | 35932 ft | 430 kts | 285° |
| 2026-05-07 08:47 | 49.62179 | 15.06820 | 35931 ft | 430 kts | 285° |
| 2026-05-07 08:47 | 49.64428 | 14.98281 | 35931 ft | 429 kts | 285° |
| 2026-05-07 08:48 | 49.66659 | 14.89737 | 35927 ft | 430 kts | 285° |
| 2026-05-07 08:48 | 49.68902 | 14.81161 | 35919 ft | 430 kts | 285° |
| 2026-05-07 08:49 | 49.71132 | 14.72590 | 35921 ft | 430 kts | 285° |
| 2026-05-07 08:49 | 49.73335 | 14.64065 | 35921 ft | 430 kts | 285° |
| 2026-05-07 08:50 | 49.75552 | 14.55482 | 35919 ft | 430 kts | 285° |
| 2026-05-07 08:50 | 49.77772 | 14.46866 | 35917 ft | 431 kts | 285° |
| 2026-05-07 08:51 | 49.80009 | 14.38252 | 35921 ft | 432 kts | 286° |
| 2026-05-07 08:51 | 49.82225 | 14.29682 | 35920 ft | 431 kts | 285° |
| 2026-05-07 08:52 | 49.84426 | 14.21040 | 35925 ft | 431 kts | 285° |
| 2026-05-07 08:52 | 49.86621 | 14.12400 | 35931 ft | 431 kts | 285° |
| 2026-05-07 08:53 | 49.88811 | 14.03748 | 35939 ft | 431 kts | 285° |
| 2026-05-07 08:53 | 49.90976 | 13.95146 | 35941 ft | 430 kts | 285° |
| 2026-05-07 08:54 | 49.93152 | 13.86492 | 35940 ft | 430 kts | 285° |
| 2026-05-07 08:54 | 49.95317 | 13.77837 | 35940 ft | 430 kts | 285° |
| 2026-05-07 08:55 | 49.97475 | 13.69172 | 35940 ft | 430 kts | 285° |
| 2026-05-07 08:55 | 49.99627 | 13.60505 | 35940 ft | 430 kts | 285° |
| 2026-05-07 08:56 | 50.01753 | 13.51875 | 35941 ft | 430 kts | 285° |
| 2026-05-07 08:56 | 50.03858 | 13.43164 | 35939 ft | 430 kts | 285° |
| 2026-05-07 08:57 | 50.05985 | 13.34455 | 35941 ft | 431 kts | 285° |
| 2026-05-07 08:57 | 50.08132 | 13.25742 | 35939 ft | 431 kts | 285° |
| 2026-05-07 08:58 | 50.10246 | 13.17086 | 35935 ft | 431 kts | 285° |
| 2026-05-07 08:58 | 50.12377 | 13.08352 | 35930 ft | 431 kts | 285° |
| 2026-05-07 08:59 | 50.14501 | 12.99602 | 35929 ft | 432 kts | 285° |
| 2026-05-07 08:59 | 50.16616 | 12.90826 | 35930 ft | 433 kts | 285° |
| 2026-05-07 09:00 | 50.18705 | 12.82093 | 35930 ft | 433 kts | 285° |
| 2026-05-07 09:00 | 50.20801 | 12.73296 | 35929 ft | 433 kts | 285° |
| 2026-05-07 09:01 | 50.22892 | 12.64494 | 35929 ft | 433 kts | 285° |
| 2026-05-07 09:01 | 50.24979 | 12.55675 | 35932 ft | 433 kts | 285° |
| 2026-05-07 09:02 | 50.27046 | 12.46905 | 35925 ft | 433 kts | 285° |
| 2026-05-07 09:02 | 50.29305 | 12.38155 | 35919 ft | 439 kts | 293° |
| 2026-05-07 09:03 | 50.32879 | 12.30296 | 35924 ft | 445 kts | 302° |
| 2026-05-07 09:03 | 50.36684 | 12.22635 | 35911 ft | 445 kts | 302° |
| 2026-05-07 09:04 | 50.40425 | 12.14990 | 35910 ft | 445 kts | 302° |
| 2026-05-07 09:04 | 50.44177 | 12.07269 | 35911 ft | 445 kts | 302° |
| 2026-05-07 09:05 | 50.47923 | 11.99536 | 35910 ft | 446 kts | 302° |
| 2026-05-07 09:05 | 50.51673 | 11.91792 | 35911 ft | 445 kts | 302° |
| 2026-05-07 09:06 | 50.55384 | 11.84088 | 35910 ft | 444 kts | 302° |
| 2026-05-07 09:06 | 50.59086 | 11.76318 | 35911 ft | 444 kts | 302° |
| 2026-05-07 09:07 | 50.62790 | 11.68531 | 35912 ft | 444 kts | 302° |
| 2026-05-07 09:07 | 50.66507 | 11.60739 | 35918 ft | 444 kts | 302° |
| 2026-05-07 09:08 | 50.70189 | 11.52997 | 35945 ft | 444 kts | 303° |
| 2026-05-07 09:08 | 50.73890 | 11.45205 | 35951 ft | 444 kts | 303° |
| 2026-05-07 09:09 | 50.77588 | 11.37402 | 35958 ft | 444 kts | 303° |
| 2026-05-07 09:09 | 50.81281 | 11.29591 | 35959 ft | 443 kts | 303° |
| 2026-05-07 09:10 | 50.84964 | 11.21774 | 35960 ft | 443 kts | 303° |
| 2026-05-07 09:10 | 50.88607 | 11.13981 | 35958 ft | 444 kts | 303° |
| 2026-05-07 09:11 | 50.92286 | 11.06119 | 35961 ft | 444 kts | 303° |
| 2026-05-07 09:11 | 50.95960 | 10.98246 | 35961 ft | 444 kts | 303° |
| 2026-05-07 09:12 | 50.99646 | 10.90351 | 35961 ft | 444 kts | 304° |
| 2026-05-07 09:12 | 51.03338 | 10.82499 | 35960 ft | 444 kts | 303° |
| 2026-05-07 09:13 | 51.06963 | 10.74678 | 35967 ft | 442 kts | 303° |
| 2026-05-07 09:13 | 51.10597 | 10.66798 | 35970 ft | 442 kts | 303° |
| 2026-05-07 09:14 | 51.14225 | 10.58903 | 35969 ft | 442 kts | 303° |
| 2026-05-07 09:14 | 51.17844 | 10.50984 | 35969 ft | 442 kts | 303° |
| 2026-05-07 09:15 | 51.21427 | 10.43136 | 35970 ft | 442 kts | 303° |
| 2026-05-07 09:15 | 51.24987 | 10.35148 | 35974 ft | 440 kts | 298° |
| 2026-05-07 09:16 | 51.27771 | 10.26487 | 35981 ft | 438 kts | 293° |
| 2026-05-07 09:16 | 51.30417 | 10.17730 | 35981 ft | 438 kts | 293° |
| 2026-05-07 09:17 | 51.33054 | 10.09022 | 35979 ft | 438 kts | 293° |
| 2026-05-07 09:17 | 51.35713 | 10.00241 | 35983 ft | 440 kts | 294° |
| 2026-05-07 09:18 | 51.38376 | 9.91412 | 35980 ft | 441 kts | 294° |
| 2026-05-07 09:18 | 51.41035 | 9.82565 | 35987 ft | 440 kts | 294° |
| 2026-05-07 09:19 | 51.43683 | 9.73712 | 35990 ft | 440 kts | 294° |
| 2026-05-07 09:19 | 51.46310 | 9.64918 | 35990 ft | 440 kts | 294° |
| 2026-05-07 09:20 | 51.48941 | 9.56053 | 35995 ft | 440 kts | 294° |
| 2026-05-07 09:20 | 51.51570 | 9.47184 | 35995 ft | 440 kts | 293° |
| 2026-05-07 09:21 | 51.54188 | 9.38300 | 35995 ft | 439 kts | 293° |
| 2026-05-07 09:21 | 51.56775 | 9.29492 | 35992 ft | 439 kts | 293° |
| 2026-05-07 09:22 | 51.59375 | 9.20621 | 35994 ft | 439 kts | 293° |
| 2026-05-07 09:22 | 51.61965 | 9.11742 | 36004 ft | 438 kts | 293° |
| 2026-05-07 09:23 | 51.64539 | 9.02857 | 36012 ft | 438 kts | 293° |
| 2026-05-07 09:23 | 51.67101 | 8.94036 | 36016 ft | 438 kts | 293° |
| 2026-05-07 09:24 | 51.69667 | 8.85142 | 35995 ft | 434 kts | 293° |
| 2026-05-07 09:24 | 51.70933 | 8.80736 | 35677 ft | 433 kts | 293° |
| 2026-05-07 09:24 | 51.72198 | 8.76322 | 35409 ft | 434 kts | 293° |
| 2026-05-07 09:25 | 51.73464 | 8.71899 | 35157 ft | 435 kts | 294° |
| 2026-05-07 09:25 | 51.74732 | 8.67475 | 34906 ft | 434 kts | 294° |
| 2026-05-07 09:25 | 51.75994 | 8.63064 | 34654 ft | 432 kts | 294° |
| 2026-05-07 09:25 | 51.77228 | 8.58735 | 34407 ft | 429 kts | 294° |
| 2026-05-07 09:26 | 51.78471 | 8.54372 | 34153 ft | 427 kts | 294° |
| 2026-05-07 09:26 | 51.79705 | 8.50033 | 33904 ft | 424 kts | 294° |
| 2026-05-07 09:26 | 51.80933 | 8.45700 | 33649 ft | 422 kts | 294° |
| 2026-05-07 09:26 | 51.82148 | 8.41404 | 33397 ft | 420 kts | 294° |
| 2026-05-07 09:27 | 51.83359 | 8.37114 | 33166 ft | 419 kts | 294° |
| 2026-05-07 09:27 | 51.84562 | 8.32844 | 32911 ft | 417 kts | 294° |
| 2026-05-07 09:27 | 51.86951 | 8.24341 | 32405 ft | 414 kts | 294° |
| 2026-05-07 09:28 | 51.88125 | 8.20163 | 32159 ft | 413 kts | 294° |
| 2026-05-07 09:28 | 51.89309 | 8.15937 | 31907 ft | 411 kts | 294° |
| 2026-05-07 09:28 | 51.90485 | 8.11731 | 31651 ft | 409 kts | 294° |
| 2026-05-07 09:28 | 51.91652 | 8.07535 | 31412 ft | 408 kts | 294° |
| 2026-05-07 09:29 | 51.92817 | 8.03354 | 31166 ft | 407 kts | 294° |
| 2026-05-07 09:29 | 51.93976 | 7.99184 | 30912 ft | 405 kts | 294° |
| 2026-05-07 09:29 | 51.95125 | 7.95031 | 30663 ft | 404 kts | 294° |
| 2026-05-07 09:29 | 51.96261 | 7.90923 | 30420 ft | 402 kts | 294° |
| 2026-05-07 09:30 | 51.97420 | 7.86727 | 30164 ft | 401 kts | 294° |
| 2026-05-07 09:30 | 51.98553 | 7.82629 | 29916 ft | 400 kts | 294° |
| 2026-05-07 09:30 | 51.99674 | 7.78566 | 29670 ft | 398 kts | 294° |
| 2026-05-07 09:30 | 52.00812 | 7.74431 | 29417 ft | 397 kts | 294° |
| 2026-05-07 09:31 | 52.01915 | 7.70402 | 29167 ft | 395 kts | 294° |
| 2026-05-07 09:31 | 52.03030 | 7.66336 | 28919 ft | 393 kts | 294° |
| 2026-05-07 09:31 | 52.04125 | 7.62296 | 28666 ft | 390 kts | 292° |
| 2026-05-07 09:31 | 52.05122 | 7.58207 | 28417 ft | 389 kts | 291° |
| 2026-05-07 09:32 | 52.06094 | 7.54116 | 28168 ft | 387 kts | 291° |
| 2026-05-07 09:32 | 52.07060 | 7.50042 | 27927 ft | 386 kts | 290° |
| 2026-05-07 09:32 | 52.08024 | 7.45975 | 27671 ft | 384 kts | 291° |
| 2026-05-07 09:32 | 52.08981 | 7.41949 | 27415 ft | 382 kts | 291° |
| 2026-05-07 09:33 | 52.09938 | 7.37930 | 27168 ft | 380 kts | 291° |
| 2026-05-07 09:33 | 52.10889 | 7.33930 | 26916 ft | 378 kts | 290° |
| 2026-05-07 09:33 | 52.11835 | 7.29940 | 26663 ft | 377 kts | 290° |
| 2026-05-07 09:33 | 52.12770 | 7.25973 | 26407 ft | 375 kts | 290° |
| 2026-05-07 09:34 | 52.13688 | 7.22067 | 26164 ft | 373 kts | 290° |
| 2026-05-07 09:34 | 52.14616 | 7.18125 | 25916 ft | 372 kts | 290° |
| 2026-05-07 09:34 | 52.15538 | 7.14207 | 25662 ft | 370 kts | 290° |
| 2026-05-07 09:34 | 52.16455 | 7.10302 | 25412 ft | 368 kts | 290° |
| 2026-05-07 09:35 | 52.17366 | 7.06418 | 25162 ft | 367 kts | 290° |
| 2026-05-07 09:35 | 52.18271 | 7.02542 | 24908 ft | 365 kts | 290° |
| 2026-05-07 09:35 | 52.19167 | 6.98694 | 24661 ft | 363 kts | 290° |
| 2026-05-07 09:35 | 52.20063 | 6.94845 | 24410 ft | 362 kts | 290° |
| 2026-05-07 09:36 | 52.20940 | 6.91069 | 24166 ft | 360 kts | 290° |
| 2026-05-07 09:36 | 52.21825 | 6.87256 | 23878 ft | 358 kts | 290° |
| 2026-05-07 09:36 | 52.22699 | 6.83479 | 23493 ft | 355 kts | 290° |
| 2026-05-07 09:36 | 52.23565 | 6.79716 | 23063 ft | 353 kts | 290° |
| 2026-05-07 09:37 | 52.24416 | 6.75979 | 22628 ft | 351 kts | 289° |
| 2026-05-07 09:37 | 52.25262 | 6.72267 | 22185 ft | 350 kts | 289° |
| 2026-05-07 09:37 | 52.26113 | 6.68532 | 21723 ft | 348 kts | 289° |
| 2026-05-07 09:37 | 52.26958 | 6.64840 | 21259 ft | 347 kts | 290° |
| 2026-05-07 09:38 | 52.27805 | 6.61154 | 20802 ft | 345 kts | 290° |
| 2026-05-07 09:38 | 52.28643 | 6.57495 | 20383 ft | 343 kts | 290° |
| 2026-05-07 09:38 | 52.29479 | 6.53847 | 19976 ft | 341 kts | 290° |
| 2026-05-07 09:38 | 52.30304 | 6.50231 | 19560 ft | 339 kts | 290° |
| 2026-05-07 09:39 | 52.31119 | 6.46670 | 19154 ft | 338 kts | 290° |
| 2026-05-07 09:39 | 52.31941 | 6.43072 | 18756 ft | 337 kts | 290° |
| 2026-05-07 09:39 | 52.32756 | 6.39490 | 18370 ft | 336 kts | 289° |
| 2026-05-07 09:39 | 52.33569 | 6.35911 | 17983 ft | 335 kts | 290° |
| 2026-05-07 09:40 | 52.34379 | 6.32349 | 17598 ft | 335 kts | 290° |
| 2026-05-07 09:40 | 52.35192 | 6.28760 | 17194 ft | 335 kts | 289° |
| 2026-05-07 09:40 | 52.36000 | 6.25183 | 16817 ft | 335 kts | 290° |
| 2026-05-07 09:40 | 52.36803 | 6.21614 | 16447 ft | 334 kts | 290° |
| 2026-05-07 09:41 | 52.37602 | 6.18055 | 16084 ft | 333 kts | 290° |
| 2026-05-07 09:41 | 52.38401 | 6.14495 | 15716 ft | 332 kts | 290° |
| 2026-05-07 09:41 | 52.39186 | 6.10994 | 15360 ft | 331 kts | 290° |
| 2026-05-07 09:41 | 52.39977 | 6.07460 | 15006 ft | 330 kts | 290° |
| 2026-05-07 09:42 | 52.40779 | 6.03858 | 14641 ft | 329 kts | 290° |
| 2026-05-07 09:42 | 52.41554 | 6.00374 | 14279 ft | 328 kts | 290° |
| 2026-05-07 09:42 | 52.42324 | 5.96896 | 13907 ft | 322 kts | 290° |
| 2026-05-07 09:42 | 52.43081 | 5.93479 | 13557 ft | 316 kts | 290° |
| 2026-05-07 09:43 | 52.43832 | 5.90092 | 13215 ft | 310 kts | 290° |
| 2026-05-07 09:43 | 52.44561 | 5.86803 | 12875 ft | 304 kts | 290° |
| 2026-05-07 09:43 | 52.45275 | 5.83571 | 12565 ft | 301 kts | 290° |
| 2026-05-07 09:43 | 52.45984 | 5.80339 | 12242 ft | 300 kts | 290° |
| 2026-05-07 09:44 | 52.46689 | 5.77129 | 11916 ft | 299 kts | 290° |
| 2026-05-07 09:44 | 52.47395 | 5.73921 | 11579 ft | 299 kts | 290° |
| 2026-05-07 09:44 | 52.48100 | 5.70711 | 11244 ft | 298 kts | 290° |
| 2026-05-07 09:44 | 52.48803 | 5.67509 | 10906 ft | 298 kts | 290° |
| 2026-05-07 09:45 | 52.49503 | 5.64318 | 10590 ft | 296 kts | 290° |
| 2026-05-07 09:45 | 52.50188 | 5.61178 | 10373 ft | 287 kts | 290° |
| 2026-05-07 09:45 | 52.50656 | 5.58072 | 10163 ft | 284 kts | 275° |
| 2026-05-07 09:45 | 52.50386 | 5.54905 | 9939 ft | 281 kts | 250° |
| 2026-05-07 09:46 | 52.49479 | 5.52106 | 9797 ft | 275 kts | 239° |
| 2026-05-07 09:46 | 52.48466 | 5.49465 | 9663 ft | 280 kts | 239° |
| 2026-05-07 09:46 | 52.47406 | 5.46682 | 9572 ft | 288 kts | 239° |
| 2026-05-07 09:46 | 52.46370 | 5.43927 | 9466 ft | 280 kts | 239° |
| 2026-05-07 09:47 | 52.45370 | 5.41250 | 9341 ft | 275 kts | 239° |
| 2026-05-07 09:47 | 52.44336 | 5.38467 | 9234 ft | 289 kts | 239° |
| 2026-05-07 09:47 | 52.43294 | 5.35657 | 9136 ft | 289 kts | 239° |
| 2026-05-07 09:47 | 52.42249 | 5.32839 | 9028 ft | 289 kts | 239° |
| 2026-05-07 09:48 | 52.41208 | 5.30032 | 8909 ft | 289 kts | 239° |
| 2026-05-07 09:48 | 52.40166 | 5.27222 | 8790 ft | 288 kts | 240° |
| 2026-05-07 09:48 | 52.39122 | 5.24473 | 8684 ft | 288 kts | 238° |
| 2026-05-07 09:48 | 52.38034 | 5.21743 | 8567 ft | 284 kts | 237° |
| 2026-05-07 09:49 | 52.36969 | 5.19087 | 8454 ft | 273 kts | 237° |
| 2026-05-07 09:49 | 52.35950 | 5.16546 | 8337 ft | 262 kts | 237° |
| 2026-05-07 09:49 | 52.34971 | 5.14112 | 8210 ft | 252 kts | 237° |
| 2026-05-07 09:49 | 52.34010 | 5.11722 | 8094 ft | 251 kts | 237° |
| 2026-05-07 09:50 | 52.33051 | 5.09340 | 7948 ft | 250 kts | 237° |
| 2026-05-07 09:50 | 52.32097 | 5.06970 | 7788 ft | 250 kts | 237° |
| 2026-05-07 09:50 | 52.31147 | 5.04610 | 7628 ft | 249 kts | 237° |
| 2026-05-07 09:50 | 52.30196 | 5.02247 | 7458 ft | 248 kts | 237° |
| 2026-05-07 09:51 | 52.29250 | 4.99899 | 7286 ft | 247 kts | 237° |
| 2026-05-07 09:51 | 52.28305 | 4.97552 | 7107 ft | 247 kts | 237° |
| 2026-05-07 09:51 | 52.27374 | 4.95238 | 6935 ft | 246 kts | 237° |
| 2026-05-07 09:51 | 52.26420 | 4.92869 | 6753 ft | 246 kts | 237° |
| 2026-05-07 09:52 | 52.25497 | 4.90575 | 6572 ft | 245 kts | 237° |
| 2026-05-07 09:52 | 52.24565 | 4.88261 | 6398 ft | 244 kts | 237° |
| 2026-05-07 09:52 | 52.23633 | 4.85945 | 6210 ft | 244 kts | 237° |
| 2026-05-07 09:52 | 52.22718 | 4.83672 | 6030 ft | 236 kts | 237° |
| 2026-05-07 09:53 | 52.21834 | 4.81471 | 5853 ft | 229 kts | 237° |
| 2026-05-07 09:53 | 52.20977 | 4.79334 | 5674 ft | 221 kts | 237° |
| 2026-05-07 09:53 | 52.20137 | 4.77242 | 5511 ft | 220 kts | 237° |
| 2026-05-07 09:53 | 52.19302 | 4.75160 | 5347 ft | 219 kts | 237° |
| 2026-05-07 09:54 | 52.18473 | 4.73092 | 5161 ft | 218 kts | 237° |
| 2026-05-07 09:54 | 52.17645 | 4.71029 | 4977 ft | 217 kts | 237° |
| 2026-05-07 09:54 | 52.16831 | 4.68999 | 4791 ft | 217 kts | 237° |
| 2026-05-07 09:54 | 52.16007 | 4.66944 | 4574 ft | 216 kts | 237° |
| 2026-05-07 09:55 | 52.15188 | 4.64900 | 4302 ft | 215 kts | 238° |
| 2026-05-07 09:55 | 52.14638 | 4.62670 | 4004 ft | 213 kts | 266° |
| 2026-05-07 09:55 | 52.14873 | 4.60336 | 3708 ft | 208 kts | 299° |
| 2026-05-07 09:55 | 52.15701 | 4.58446 | 3406 ft | 204 kts | 311° |
| 2026-05-07 09:56 | 52.16615 | 4.56697 | 3089 ft | 202 kts | 312° |
| 2026-05-07 09:56 | 52.17525 | 4.54971 | 2768 ft | 201 kts | 312° |
| 2026-05-07 09:56 | 52.18562 | 4.53505 | 2429 ft | 196 kts | 338° |
| 2026-05-07 09:56 | 52.19859 | 4.53295 | 2169 ft | 185 kts | 16° |
| 2026-05-07 09:57 | 52.20962 | 4.54180 | 2003 ft | 177 kts | 39° |
| 2026-05-07 09:57 | 52.21824 | 4.55592 | 1956 ft | 176 kts | 51° |
| 2026-05-07 09:57 | 52.22506 | 4.57137 | 1983 ft | 164 kts | 56° |
| 2026-05-07 09:57 | 52.22918 | 4.58194 | 2015 ft | 164 kts | 57° |
| 2026-05-07 09:58 | 52.23548 | 4.59820 | 1959 ft | 160 kts | 57° |
| 2026-05-07 09:58 | 52.24123 | 4.61309 | 1764 ft | 148 kts | 57° |
| 2026-05-07 09:58 | 52.24637 | 4.62642 | 1609 ft | 135 kts | 57° |
| 2026-05-07 09:58 | 52.25133 | 4.63929 | 1428 ft | 134 kts | 57° |
| 2026-05-07 09:59 | 52.25629 | 4.65216 | 1248 ft | 134 kts | 57° |
| 2026-05-07 09:59 | 52.26117 | 4.66481 | 1059 ft | 134 kts | 57° |
| 2026-05-07 09:59 | 52.26618 | 4.67783 | 870 ft | 133 kts | 57° |
| 2026-05-07 09:59 | 52.27090 | 4.69007 | 693 ft | 133 kts | 57° |
| 2026-05-07 10:00 | 52.27575 | 4.70266 | 525 ft | 133 kts | 57° |
| 2026-05-07 10:00 | 52.28064 | 4.71539 | 353 ft | 133 kts | 57° |
| 2026-05-07 10:00 | 52.28555 | 4.72822 | 162 ft | 133 kts | 57° |
| 2026-05-07 10:00 | 52.29053 | 4.74095 | 22 ft | 130 kts | 57° |
| 2026-05-07 10:01 | 52.29501 | 4.75256 | 3 ft | 105 kts | 58° |
| 2026-05-07 10:01 | 52.29828 | 4.76096 | 1 ft | 68 kts | 57° |
| 2026-05-07 10:01 | 52.30020 | 4.76622 | 3 ft | 50 kts | 58° |
| 2026-05-07 10:01 | 52.30204 | 4.77088 | 2 ft | 39 kts | 58° |
| 2026-05-07 10:02 | 52.30324 | 4.77326 | 2 ft | 28 kts | 27° |
| 2026-05-07 10:02 | 52.30422 | 4.77396 | 3 ft | 6 kts | 21° |
| 2026-05-07 10:02 | 52.30470 | 4.77409 | 4 ft | 9 kts | 342° |
| 2026-05-07 10:02 | 52.30535 | 4.77404 | 4 ft | 11 kts | 34° |
| 2026-05-07 10:03 | 52.30582 | 4.77523 | 4 ft | 14 kts | 51° |
| 2026-05-07 10:03 | 52.30673 | 4.77589 | 4 ft | 16 kts | 5° |
| 2026-05-07 10:03 | 52.30790 | 4.77602 | 4 ft | 18 kts | 4° |
| 2026-05-07 10:03 | 52.30920 | 4.77615 | 4 ft | 20 kts | 2° |
| 2026-05-07 10:04 | 52.31062 | 4.77624 | 4 ft | 21 kts | 3° |
| 2026-05-07 10:04 | 52.31216 | 4.77638 | 4 ft | 21 kts | 3° |
| 2026-05-07 10:04 | 52.31341 | 4.77654 | 5 ft | 18 kts | 2° |
| 2026-05-07 10:04 | 52.31464 | 4.77627 | 4 ft | 19 kts | 328° |
| 2026-05-07 10:05 | 52.31556 | 4.77482 | 4 ft | 15 kts | 306° |
| 2026-05-07 10:05 | 52.31576 | 4.77317 | 4 ft | 14 kts | 267° |
| 2026-05-07 10:05 | 52.31530 | 4.77204 | 4 ft | 14 kts | 182° |
| 2026-05-07 10:05 | 52.31428 | 4.77199 | 4 ft | 15 kts | 184° |
| 2026-05-07 10:06 | 52.31329 | 4.77133 | 4 ft | 16 kts | 213° |
| 2026-05-07 10:06 | 52.31233 | 4.77026 | 4 ft | 17 kts | 215° |
| 2026-05-07 10:06 | 52.31131 | 4.76915 | 4 ft | 18 kts | 214° |
| 2026-05-07 10:06 | 52.31068 | 4.76849 | 4 ft | 8 kts | 211° |
| 2026-05-07 10:07 | 52.31029 | 4.76805 | 4 ft | 5 kts | 243° |
| 2026-05-07 10:07 | 52.31037 | 4.76749 | 4 ft | 4 kts | 301° |
| 2026-05-07 10:07 | 52.31039 | 4.76743 | 4 ft | 0 kts | 302° |
| 2026-05-07 10:07 | 52.31042 | 4.76735 | 4 ft | 2 kts | 302° |
| 2026-05-07 10:08 | 52.31050 | 4.76715 | 4 ft | 3 kts | 302° |
| 2026-05-07 10:08 | 52.31059 | 4.76693 | 4 ft | 0 kts | 304° |